createdAt,value
2018-07-01T00:01:43.135Z,17.30
2018-07-01T00:05:46.455Z,17.30
2018-07-01T00:09:49.782Z,17.30
2018-07-01T00:13:53.129Z,17.20
2018-07-01T00:17:56.457Z,17.10
2018-07-01T00:30:06.606Z,16.90
2018-07-01T00:34:09.975Z,16.90
2018-07-01T00:38:13.287Z,16.90
2018-07-01T00:42:16.618Z,16.80
2018-07-01T00:46:20.024Z,16.70
2018-07-01T00:54:26.702Z,16.60
2018-07-01T00:58:30.047Z,16.50
2018-07-01T01:02:33.358Z,16.50
2018-07-01T01:06:36.703Z,16.40
2018-07-01T01:10:40.027Z,16.40
2018-07-01T01:14:43.358Z,16.40
2018-07-01T01:18:46.686Z,16.30
2018-07-01T01:22:50.037Z,16.30
2018-07-01T01:26:53.373Z,16.20
2018-07-01T01:30:56.764Z,16.20
2018-07-01T01:35:00.121Z,16.10
2018-07-01T01:43:32.391Z,16.00
2018-07-01T01:47:39.614Z,16.00
2018-07-01T01:51:47.617Z,15.90
2018-07-01T01:57:02.319Z,15.90
2018-07-01T02:01:30.627Z,15.80
2018-07-01T02:05:41.355Z,15.70
2018-07-01T02:09:44.695Z,15.70
2018-07-01T02:17:55.276Z,15.60
2018-07-01T02:22:00.117Z,15.60
2018-07-01T02:26:03.905Z,15.50
2018-07-01T02:30:07.276Z,15.50
2018-07-01T02:34:10.620Z,15.40
2018-07-01T02:38:13.979Z,15.30
2018-07-01T02:42:18.188Z,15.30
2018-07-01T02:46:21.528Z,15.30
2018-07-01T02:50:24.876Z,15.20
2018-07-01T02:54:28.308Z,15.20
2018-07-01T02:58:31.676Z,15.10
2018-07-01T03:02:35.144Z,15.10
2018-07-01T03:06:38.461Z,15.10
2018-07-01T03:10:41.792Z,15.00
2018-07-01T03:14:45.113Z,15.00
2018-07-01T03:18:48.438Z,14.90
2018-07-01T03:22:51.783Z,14.90
2018-07-01T03:26:55.116Z,14.90
2018-07-01T03:30:58.524Z,14.80
2018-07-01T03:35:01.867Z,14.80
2018-07-01T03:39:07.411Z,14.70
2018-07-01T03:43:10.743Z,14.70
2018-07-01T03:47:14.240Z,14.70
2018-07-01T03:51:17.568Z,14.70
2018-07-01T03:55:20.914Z,14.70
2018-07-01T03:59:24.243Z,14.60
2018-07-01T04:03:27.575Z,14.60
2018-07-01T04:07:30.920Z,14.60
2018-07-01T04:11:34.269Z,14.70
2018-07-01T04:15:37.621Z,14.70
2018-07-01T04:19:40.955Z,14.70
2018-07-01T04:23:44.305Z,14.70
2018-07-01T04:27:47.649Z,14.70
2018-07-01T04:31:51.071Z,14.80
2018-07-01T04:35:54.400Z,14.80
2018-07-01T04:39:57.780Z,14.80
2018-07-01T04:44:01.115Z,14.90
2018-07-01T04:48:04.463Z,14.90
2018-07-01T04:52:07.823Z,14.90
2018-07-01T04:56:11.156Z,15.00
2018-07-01T05:00:14.496Z,15.00
2018-07-01T05:04:18.035Z,15.10
2018-07-01T05:08:21.379Z,15.10
2018-07-01T05:12:24.727Z,15.20
2018-07-01T05:16:28.072Z,15.20
2018-07-01T05:20:31.412Z,15.20
2018-07-01T05:24:34.783Z,15.30
2018-07-01T05:28:38.108Z,15.30
2018-07-01T05:32:41.617Z,15.40
2018-07-01T05:36:44.971Z,15.40
2018-07-01T05:40:48.399Z,15.50
2018-07-01T05:44:51.751Z,15.50
2018-07-01T05:48:55.107Z,15.60
2018-07-01T05:52:58.472Z,15.70
2018-07-01T05:57:01.919Z,15.80
2018-07-01T06:01:05.348Z,15.90
2018-07-01T06:09:12.493Z,16.00
2018-07-01T06:13:15.808Z,16.10
2018-07-01T06:17:19.159Z,16.20
2018-07-01T06:21:22.500Z,16.30
2018-07-01T06:25:25.840Z,16.40
2018-07-01T06:29:29.170Z,16.50
2018-07-01T06:33:32.524Z,16.60
2018-07-01T06:37:35.865Z,16.70
2018-07-01T06:41:39.208Z,16.70
2018-07-01T06:45:42.535Z,16.80
2018-07-01T06:49:45.980Z,16.90
2018-07-01T06:57:52.439Z,17.10
2018-07-01T07:01:55.784Z,17.20
2018-07-01T07:05:59.119Z,17.30
2018-07-01T07:10:02.455Z,17.30
2018-07-01T07:14:05.866Z,17.40
2018-07-01T07:18:09.183Z,17.50
2018-07-01T07:22:13.050Z,17.60
2018-07-01T07:26:16.488Z,17.70
2018-07-01T07:30:19.885Z,17.80
2018-07-01T07:34:23.365Z,17.90
2018-07-01T07:38:26.726Z,18.00
2018-07-01T07:42:31.083Z,18.10
2018-07-01T07:46:34.832Z,18.20
2018-07-01T07:50:38.185Z,18.30
2018-07-01T07:54:41.508Z,18.40
2018-07-01T07:58:45.000Z,18.50
2018-07-01T08:02:48.425Z,18.60
2018-07-01T08:06:51.835Z,18.80
2018-07-01T08:10:55.407Z,18.90
2018-07-01T08:14:58.748Z,19.00
2018-07-01T08:19:02.084Z,19.10
2018-07-01T08:23:05.467Z,19.20
2018-07-01T08:27:09.536Z,19.30
2018-07-01T08:31:13.001Z,19.40
2018-07-01T08:35:16.427Z,19.50
2018-07-01T08:39:19.765Z,19.70
2018-07-01T08:43:23.424Z,19.80
2018-07-01T08:47:26.803Z,19.90
2018-07-01T08:51:30.378Z,20.00
2018-07-01T08:55:33.750Z,20.10
2018-07-01T08:59:37.132Z,20.30
2018-07-01T09:03:40.524Z,20.40
2018-07-01T09:11:47.491Z,20.70
2018-07-01T09:15:50.964Z,20.80
2018-07-01T09:19:54.299Z,21.00
2018-07-01T09:23:57.667Z,21.20
2018-07-01T09:28:01.033Z,21.40
2018-07-01T09:32:04.893Z,21.60
2018-07-01T09:36:08.264Z,21.80
2018-07-01T09:40:11.636Z,22.00
2018-07-01T09:44:15.108Z,22.20
2018-07-01T09:48:18.423Z,22.50
2018-07-01T09:52:21.808Z,22.60
2018-07-01T09:56:25.517Z,22.80
2018-07-01T10:00:28.977Z,23.00
2018-07-01T10:04:32.320Z,23.20
2018-07-01T10:08:36.048Z,23.40
2018-07-01T10:12:39.412Z,23.60
2018-07-01T10:16:42.833Z,23.80
2018-07-01T10:20:46.188Z,23.90
2018-07-01T10:24:49.757Z,24.10
2018-07-01T10:29:02.996Z,24.20
2018-07-01T10:33:07.501Z,24.40
2018-07-01T10:37:10.875Z,24.60
2018-07-01T10:41:14.358Z,24.70
2018-07-01T10:45:17.693Z,24.90
2018-07-01T10:49:21.027Z,25.00
2018-07-01T10:53:24.348Z,25.20
2018-07-01T10:57:27.774Z,25.40
2018-07-01T11:01:31.257Z,25.50
2018-07-01T11:05:35.070Z,25.60
2018-07-01T11:09:38.415Z,25.80
2018-07-01T11:13:41.981Z,25.90
2018-07-01T11:17:45.413Z,26.10
2018-07-01T11:21:49.011Z,26.20
2018-07-01T11:25:52.620Z,26.30
2018-07-01T11:29:55.956Z,26.30
2018-07-01T11:33:59.722Z,26.40
2018-07-01T11:38:03.187Z,26.50
2018-07-01T11:42:06.737Z,26.60
2018-07-01T11:46:10.068Z,26.70
2018-07-01T11:50:13.449Z,26.70
2018-07-01T11:54:16.844Z,26.80
2018-07-01T11:58:20.187Z,27.00
2018-07-01T12:02:23.548Z,27.10
2018-07-01T12:06:26.924Z,27.10
2018-07-01T12:10:30.318Z,27.30
2018-07-01T12:14:34.619Z,27.30
2018-07-01T12:18:38.093Z,27.40
2018-07-01T12:22:41.449Z,27.50
2018-07-01T12:26:44.855Z,27.60
2018-07-01T12:30:48.223Z,27.70
2018-07-01T12:34:51.632Z,27.70
2018-07-01T12:38:54.931Z,27.70
2018-07-01T12:42:58.287Z,27.90
2018-07-01T12:47:01.648Z,27.90
2018-07-01T12:51:06.034Z,27.90
2018-07-01T12:55:09.436Z,28.00
2018-07-01T12:59:12.828Z,28.00
2018-07-01T13:03:16.215Z,28.10
2018-07-01T13:07:19.576Z,28.10
2018-07-01T13:11:22.916Z,28.10
2018-07-01T13:15:26.280Z,28.10
2018-07-01T13:19:29.731Z,28.20
2018-07-01T13:23:33.104Z,28.20
2018-07-01T13:27:36.459Z,28.30
2018-07-01T13:31:39.855Z,28.40
2018-07-01T13:35:43.323Z,28.40
2018-07-01T13:39:46.643Z,28.40
2018-07-01T13:43:50.024Z,28.40
2018-07-01T13:47:54.440Z,28.50
2018-07-01T13:51:57.791Z,28.50
2018-07-01T13:56:01.216Z,28.60
2018-07-01T14:00:05.681Z,28.70
2018-07-01T14:04:09.102Z,28.80
2018-07-01T14:08:12.408Z,28.80
2018-07-01T14:12:15.748Z,28.90
2018-07-01T14:16:19.186Z,29.00
2018-07-01T14:20:22.552Z,29.00
2018-07-01T14:24:25.929Z,29.00
2018-07-01T14:28:29.262Z,28.90
2018-07-01T14:32:32.607Z,28.90
2018-07-01T14:36:36.184Z,28.90
2018-07-01T14:40:39.544Z,28.90
2018-07-01T14:44:42.885Z,28.80
2018-07-01T14:48:46.270Z,28.80
2018-07-01T14:52:49.631Z,28.70
2018-07-01T14:56:52.987Z,28.70
2018-07-01T15:00:56.443Z,28.70
2018-07-01T15:04:59.856Z,28.60
2018-07-01T15:09:03.384Z,28.70
2018-07-01T15:13:06.707Z,28.70
2018-07-01T15:17:10.061Z,28.70
2018-07-01T15:21:13.432Z,28.60
2018-07-01T15:25:16.787Z,28.60
2018-07-01T15:29:20.188Z,28.60
2018-07-01T15:33:23.596Z,28.50
2018-07-01T15:37:26.948Z,28.50
2018-07-01T15:41:30.303Z,28.50
2018-07-01T15:45:33.663Z,28.60
2018-07-01T15:49:37.012Z,28.70
2018-07-01T15:53:40.382Z,28.80
2018-07-01T15:57:43.760Z,29.00
2018-07-01T16:01:47.224Z,29.20
2018-07-01T16:05:50.567Z,29.40
2018-07-01T16:09:53.904Z,29.70
2018-07-01T16:13:57.318Z,29.80
2018-07-01T16:18:00.679Z,30.00
2018-07-01T16:22:04.100Z,30.10
2018-07-01T16:26:12.881Z,30.20
2018-07-01T16:30:16.307Z,30.30
2018-07-01T16:34:19.697Z,30.30
2018-07-01T16:38:23.235Z,30.20
2018-07-01T16:42:27.563Z,30.10
2018-07-01T16:46:31.029Z,30.00
2018-07-01T16:54:37.787Z,29.60
2018-07-01T16:58:41.133Z,29.40
2018-07-01T17:06:47.693Z,29.10
2018-07-01T17:10:51.057Z,28.90
2018-07-01T17:14:54.439Z,28.70
2018-07-01T17:18:57.851Z,28.50
2018-07-01T17:23:01.325Z,28.30
2018-07-01T17:27:04.997Z,28.10
2018-07-01T17:31:13.739Z,28.00
2018-07-01T17:35:18.039Z,27.80
2018-07-01T17:39:21.371Z,27.70
2018-07-01T17:43:25.055Z,27.50
2018-07-01T17:47:28.532Z,27.30
2018-07-01T17:51:31.977Z,27.10
2018-07-01T17:55:35.365Z,26.90
2018-07-01T17:59:38.761Z,26.80
2018-07-01T18:03:42.236Z,26.60
2018-07-01T18:07:45.725Z,26.40
2018-07-01T18:11:49.299Z,26.20
2018-07-01T18:15:53.223Z,26.00
2018-07-01T18:19:56.644Z,25.90
2018-07-01T18:24:27.530Z,25.70
2018-07-01T18:28:15.015Z,25.60
2018-07-01T18:32:07.146Z,25.40
2018-07-01T18:36:10.647Z,25.30
2018-07-01T18:40:14.488Z,25.10
2018-07-01T18:44:17.887Z,25.00
2018-07-01T18:48:21.313Z,24.80
2018-07-01T18:52:24.682Z,24.70
2018-07-01T18:56:28.810Z,24.60
2018-07-01T19:00:32.446Z,24.40
2018-07-01T19:04:35.804Z,24.30
2018-07-01T19:08:39.153Z,24.10
2018-07-01T19:12:42.660Z,24.00
2018-07-01T19:16:46.091Z,23.90
2018-07-01T19:20:49.464Z,23.70
2018-07-01T19:24:52.820Z,23.60
2018-07-01T19:28:56.226Z,23.40
2018-07-01T19:32:59.549Z,23.30
2018-07-01T19:37:03.045Z,23.20
2018-07-01T19:41:06.384Z,23.00
2018-07-01T19:45:09.726Z,22.90
2018-07-01T19:49:13.072Z,22.70
2018-07-01T19:53:16.693Z,22.50
2018-07-01T19:57:20.048Z,22.40
2018-07-01T20:01:23.463Z,22.20
2018-07-01T20:05:26.846Z,22.10
2018-07-01T20:09:30.256Z,21.90
2018-07-01T20:13:33.689Z,21.80
2018-07-01T20:17:37.116Z,21.60
2018-07-01T20:21:40.587Z,21.50
2018-07-01T20:25:44.014Z,21.30
2018-07-01T20:29:47.398Z,21.20
2018-07-01T20:33:50.807Z,21.10
2018-07-01T20:37:54.240Z,21.00
2018-07-01T20:41:57.728Z,20.80
2018-07-01T20:46:01.175Z,20.70
2018-07-01T20:50:04.642Z,20.60
2018-07-01T20:54:08.043Z,20.50
2018-07-01T20:58:11.453Z,20.40
2018-07-01T21:02:14.909Z,20.30
2018-07-01T21:06:18.288Z,20.10
2018-07-01T21:10:21.749Z,20.10
2018-07-01T21:14:25.160Z,19.90
2018-07-01T21:18:28.793Z,19.90
2018-07-01T21:22:32.155Z,19.80
2018-07-01T21:26:35.525Z,19.70
2018-07-01T21:30:38.839Z,19.60
2018-07-01T21:34:42.231Z,19.50
2018-07-01T21:38:45.604Z,19.40
2018-07-01T21:46:53.058Z,19.20
2018-07-01T21:50:56.521Z,19.10
2018-07-01T21:54:59.897Z,19.00
2018-07-01T21:59:03.530Z,19.00
2018-07-01T22:03:06.919Z,18.90
2018-07-01T22:07:10.300Z,18.80
2018-07-01T22:11:33.977Z,18.70
2018-07-01T22:15:48.832Z,18.60
2018-07-01T22:19:52.200Z,18.50
2018-07-01T22:23:55.551Z,18.40
2018-07-01T22:27:58.900Z,18.40
2018-07-01T22:32:02.298Z,18.30
2018-07-01T22:36:05.699Z,18.20
2018-07-01T22:40:09.046Z,18.10
2018-07-01T22:44:12.447Z,18.10
2018-07-01T22:48:18.848Z,18.00
2018-07-01T22:52:22.258Z,17.90
2018-07-01T22:56:25.790Z,17.80
2018-07-01T23:00:29.153Z,17.80
2018-07-01T23:04:32.517Z,17.60
2018-07-01T23:08:35.885Z,17.60
2018-07-01T23:12:39.240Z,17.50
2018-07-01T23:16:42.600Z,17.50
2018-07-01T23:20:45.959Z,17.40
2018-07-01T23:24:49.333Z,17.40
2018-07-01T23:28:52.747Z,17.40
2018-07-01T23:32:56.089Z,17.40
2018-07-01T23:36:59.440Z,17.40
2018-07-01T23:41:02.806Z,17.40
2018-07-01T23:45:07.934Z,17.30
2018-07-01T23:49:11.305Z,17.30
2018-07-01T23:53:14.655Z,17.20
2018-07-01T23:57:18.056Z,17.20
